2022年6月30日

时间 代码 天气 温度 能见度 天花板 METAR/SPECI
6:00 上午
M
59 °F 6¼ mi+ 1.800 ft 200° 200° 7 kt METAR LFBC 300400Z AUTO 20007KT 160V230 9999 FEW012/// BKN018/// BKN034/// //////TCU 15/14 Q1015
5:30 上午
V
59 °F 6¼ mi+ 3.400 ft 140° 140° 5 kt METAR LFBC 300330Z AUTO 14005KT 9999 BKN034 BKN043 BKN049 15/14 Q1015
5:00 上午
V
59 °F 6¼ mi+ 3.000 ft 140° 140° 3 kt METAR LFBC 300300Z AUTO 14003KT 9999 -RA BKN030 BKN039 OVC054 15/14 Q1015
4:30 上午
M
61 °F 6¼ mi+ 2.800 ft 080° 080° 3 kt METAR LFBC 300230Z AUTO 08003KT 9999 -RA BKN028 BKN043 OVC049 16/14 Q1015
4:00 上午
M
61 °F 6¼ mi+ 2.800 ft 040° 040° 3 kt METAR LFBC 300200Z AUTO 04003KT 9999 BKN028/// BKN033/// OVC045/// //////TCU 16/13 Q1015
3:30 上午
M
61 °F 6¼ mi+ 2.800 ft Var 000° 0 kt METAR LFBC 300130Z AUTO 00000KT 9999 OVC028/// ///TCU 16/13 Q1015
3:00 上午
V
61 °F 6¼ mi+ 3.400 ft Var Var 2 kt METAR LFBC 300100Z AUTO VRB02KT 9999 -RA SCT029/// BKN034/// BKN045/// //////TCU 16/13 Q1015
2:30 上午
V
61 °F 6¼ mi+ 3.200 ft 330° 330° 6 kt METAR LFBC 300030Z AUTO 33006KT 280V020 9999 BKN032 OVC047 16/13 Q1015
2:00 上午
V
63 °F 6¼ mi+ 3.200 ft Var 000° 0 kt METAR LFBC 300000Z AUTO 00000KT 9999 BKN032 BKN041 OVC058 17/12 Q1015
1:30 上午
V
63 °F 6¼ mi+ 6.000 ft Var Var 1 kt METAR LFBC 292330Z AUTO VRB01KT 9999 FEW029 OVC060 17/12 Q1015
1:00 上午
V
63 °F 6¼ mi+ - Var Var 2 kt METAR LFBC 292300Z AUTO VRB02KT 9999 //////TCU 17/13 Q1015
12:30 上午
V
63 °F 6¼ mi+ - 310° 310° 3 kt METAR LFBC 292230Z AUTO 31003KT CAVOK 17/13 Q1016 TEMPO 4900 -RA
12:00 上午
V
63 °F 6¼ mi+ - 310° 310° 3 kt METAR LFBC 292200Z AUTO 31003KT CAVOK 17/13 Q1016 NOSIG

2022年6月29日

时间 代码 天气 温度 能见度 天花板 METAR/SPECI
11:30 下午
V
63 °F 6¼ mi+ - 340° 340° 3 kt METAR LFBC 292130Z AUTO 34003KT 9999 //////TCU 17/14 Q1016 BECMG SCT030 BKN050
11:00 下午
V
63 °F 6¼ mi+ 6.200 ft 340° 340° 3 kt METAR LFBC 292100Z AUTO 34003KT 9999 FEW020/// OVC062/// ///CB 17/13 Q1016 BECMG SCT030 BKN050
10:30 下午
V
63 °F 6¼ mi+ - 330° 330° 3 kt METAR LFBC 292030Z AUTO 33003KT 300V010 CAVOK 17/14 Q1016 NOSIG
10:00 下午
V
63 °F 6¼ mi+ 4.400 ft 350° 350° 5 kt METAR LFBC 292000Z AUTO 35005KT 9999 FEW021 BKN044 OVC052 17/14 Q1015 NOSIG
9:30 下午
M
63 °F 6¼ mi+ 1.700 ft 340° 340° 7 kt METAR LFBC 291930Z AUTO 34007KT 9999 BKN017 BKN037 OVC140 17/14 Q1015 NOSIG
9:00 下午
V
64 °F 6¼ mi+ 14.000 ft 350° 350° 7 kt METAR LFBC 291900Z AUTO 35007KT 320V020 9999 SCT030 BKN140 BKN160 18/14 Q1015 NOSIG
8:30 下午
V
64 °F 6¼ mi+ 5.000 ft 330° 330° 6 kt METAR LFBC 291830Z AUTO 33006KT 290V360 9999 FEW017 SCT029 BKN050 18/14 Q1016 NOSIG
8:00 下午
M
64 °F 6¼ mi+ 1.800 ft 340° 340° 9 kt METAR LFBC 291800Z AUTO 34009KT 300V010 9999 BKN018 BKN024 OVC130 18/14 Q1015 NOSIG
7:30 下午
V
64 °F 6¼ mi+ 12.000 ft 340° 340° 10 kt METAR LFBC 291730Z AUTO 34010KT 9999 SCT025 BKN120 OVC150 18/14 Q1015 NOSIG
7:00 下午
M
66 °F 6¼ mi+ 2.200 ft 330° 330° 10 kt METAR LFBC 291700Z AUTO 33010KT 290V360 9999 BKN022 BKN200 OVC230 19/14 Q1015 NOSIG
6:30 下午
V
66 °F 6¼ mi+ 23.000 ft 330° 330° 10 kt METAR LFBC 291630Z AUTO 33010KT 300V360 9999 FEW025 SCT068 BKN230 19/14 Q1015 NOSIG
6:00 下午
V
70 °F 6¼ mi+ 6.800 ft 330° 330° 11 kt METAR LFBC 291600Z AUTO 33011KT 290V360 9999 FEW026 OVC068 21/14 Q1016 NOSIG
5:30 下午
V
68 °F 6¼ mi+ - 330° 330° 11 kt METAR LFBC 291530Z AUTO 33011KT 300V360 CAVOK 20/13 Q1016 NOSIG
5:00 下午
V
72 °F 6¼ mi+ 18.000 ft 320° 320° 12 kt METAR LFBC 291500Z AUTO 32012KT 280V350 9999 FEW026 BKN180 22/14 Q1015 NOSIG
4:30 下午
V
70 °F 6¼ mi+ - 320° 320° 10 kt METAR LFBC 291430Z AUTO 32010KT 280V350 CAVOK 21/14 Q1016 NOSIG
4:00 下午
M
70 °F 6¼ mi+ 1.900 ft 310° 310° 12 kt METAR LFBC 291400Z AUTO 31012KT 270V340 9999 BKN019 BKN054 BKN064 21/15 Q1016 NOSIG
3:30 下午
V
72 °F 6¼ mi+ 5.400 ft 310° 310° 12 kt METAR LFBC 291330Z AUTO 31012KT 9999 SCT019 BKN054 OVC180 22/16 Q1015 NOSIG
3:00 下午
V
70 °F 6¼ mi+ - 290° 290° 10 kt METAR LFBC 291300Z AUTO 29010KT 260V320 CAVOK 21/15 Q1015 NOSIG
2:30 下午
V
72 °F 6¼ mi+ 5.600 ft 270° 270° 10 kt METAR LFBC 291230Z AUTO 27010KT 9999 SCT032 BKN056 OVC160 22/14 Q1016 NOSIG
2:00 下午
V
73 °F 6¼ mi+ 3.300 ft 220° 220° 10 kt METAR LFBC 291200Z AUTO 22010KT 200V260 9999 BKN033 OVC039 23/14 Q1016 NOSIG
1:30 下午
V
73 °F 6¼ mi+ 3.800 ft 230° 230° 7 kt METAR LFBC 291130Z AUTO 23007KT 170V270 9999 BKN038 BKN047 23/14 Q1016 NOSIG
1:00 下午
V
73 °F 6¼ mi+ - 220° 220° 5 kt METAR LFBC 291100Z AUTO 22005KT 180V300 9999 SCT033 SCT230 23/14 Q1016 NOSIG
12:30 下午
V
73 °F 6¼ mi+ 3.500 ft Var Var 4 kt METAR LFBC 291030Z AUTO VRB04KT 9999 BKN035 23/14 Q1016 NOSIG
12:00 下午
V
70 °F 6¼ mi+ 3.400 ft 230° 230° 5 kt METAR LFBC 291000Z AUTO 23005KT 190V280 9999 BKN034 OVC040 21/14 Q1016 NOSIG
11:30 上午
V
70 °F 6¼ mi+ 3.100 ft 230° 230° 4 kt METAR LFBC 290930Z AUTO 23004KT 200V330 9999 BKN031 21/14 Q1017 NOSIG
11:00 上午
V
70 °F 6¼ mi+ 3.200 ft 210° 210° 3 kt METAR LFBC 290900Z AUTO 21003KT 150V300 9999 BKN032 21/13 Q1017 NOSIG
10:30 上午
V
70 °F 6¼ mi+ - 190° 190° 4 kt METAR LFBC 290830Z AUTO 19004KT 120V250 CAVOK 21/13 Q1017 NOSIG
10:00 上午
V
68 °F 6¼ mi+ - 180° 180° 3 kt METAR LFBC 290800Z AUTO 18003KT 150V220 9999 SCT026 20/13 Q1017 NOSIG
9:30 上午
M
66 °F 6¼ mi+ 2.500 ft Var Var 1 kt METAR LFBC 290730Z AUTO VRB01KT 9999 BKN025 19/12 Q1017 NOSIG
9:00 上午
V
64 °F 6¼ mi+ - 140° 140° 3 kt METAR LFBC 290700Z AUTO 14003KT 100V180 9999 SCT027 18/13 Q1017 NOSIG
8:30 上午
V
61 °F 6¼ mi+ - Var Var 2 kt METAR LFBC 290630Z AUTO VRB02KT CAVOK 16/12 Q1017 NOSIG
8:00 上午
V
57 °F 6¼ mi+ - Var 000° 0 kt METAR LFBC 290600Z AUTO 00000KT CAVOK 14/12 Q1017 NOSIG
7:30 上午
V
54 °F 6¼ mi+ - Var 000° 0 kt METAR LFBC 290530Z AUTO 00000KT CAVOK 12/11 Q1017
7:00 上午
V
50 °F 6¼ mi+ - Var Var 2 kt METAR LFBC 290500Z AUTO VRB02KT CAVOK 10/09 Q1017
6:30 上午
V
48 °F 6¼ mi+ - Var 000° 0 kt METAR LFBC 290430Z AUTO 00000KT CAVOK 09/08 Q1017
6:00 上午
V
50 °F 6¼ mi+ - 340° 340° 1 kt METAR LFBC 290400Z AUTO 34001KT CAVOK 10/09 Q1017
5:30 上午
V
50 °F 6¼ mi+ - 360° 360° 2 kt METAR LFBC 290330Z AUTO 36002KT CAVOK 10/10 Q1017
5:00 上午
V
52 °F 6¼ mi+ - Var 000° 0 kt METAR LFBC 290300Z AUTO 00000KT CAVOK 11/10 Q1017
4:30 上午
V
52 °F 6¼ mi+ - Var 000° 0 kt METAR LFBC 290230Z AUTO 00000KT CAVOK 11/10 Q1017
4:00 上午
V
52 °F 6¼ mi+ - 360° 360° 2 kt METAR LFBC 290200Z AUTO 36002KT CAVOK 11/10 Q1017
3:30 上午
V
54 °F 6¼ mi+ - 020° 020° 1 kt METAR LFBC 290130Z AUTO 02001KT CAVOK 12/10 Q1017
3:00 上午
V
55 °F 6¼ mi+ - 010° 010° 2 kt METAR LFBC 290100Z AUTO 01002KT CAVOK 13/11 Q1017
2:30 上午
V
55 °F 6¼ mi+ - 350° 350° 2 kt METAR LFBC 290030Z AUTO 35002KT CAVOK 13/11 Q1018
2:00 上午
V
57 °F 6¼ mi+ - 350° 350° 2 kt METAR LFBC 290000Z AUTO 35002KT CAVOK 14/11 Q1018
1:30 上午
V
57 °F 6¼ mi+ - 020° 020° 2 kt METAR LFBC 282330Z AUTO 02002KT CAVOK 14/10 Q1018
1:00 上午
V
57 °F 6¼ mi+ - 330° 330° 3 kt METAR LFBC 282300Z AUTO 33003KT CAVOK 14/11 Q1018
12:30 上午
V
59 °F 6¼ mi+ - 330° 330° 3 kt METAR LFBC 282230Z AUTO 33003KT CAVOK 15/12 Q1018
12:00 上午
V
59 °F 6¼ mi+ - 340° 340° 3 kt METAR LFBC 282200Z AUTO 34003KT CAVOK 15/11 Q1019

2022年6月28日

时间 代码 天气 温度 能见度 天花板 METAR/SPECI
11:30 下午
V
59 °F 6¼ mi+ - 340° 340° 4 kt METAR LFBC 282130Z AUTO 34004KT CAVOK 15/11 Q1019
11:00 下午
V
61 °F 6¼ mi+ - 340° 340° 5 kt METAR LFBC 282100Z AUTO 34005KT CAVOK 16/11 Q1019
10:30 下午
V
63 °F 6¼ mi+ - 340° 340° 5 kt METAR LFBC 282030Z AUTO 34005KT CAVOK 17/11 Q1018
10:00 下午
V
64 °F 6¼ mi+ - 340° 340° 6 kt METAR LFBC 282000Z AUTO 34006KT CAVOK 18/11 Q1018
9:30 下午
V
66 °F 6¼ mi+ - 340° 340° 6 kt METAR LFBC 281930Z AUTO 34006KT CAVOK 19/11 Q1018
9:00 下午
V
68 °F 6¼ mi+ - 340° 340° 6 kt METAR LFBC 281900Z AUTO 34006KT CAVOK 20/11 Q1018
8:30 下午
V
70 °F 6¼ mi+ - 350° 350° 8 kt METAR LFBC 281830Z AUTO 35008KT 310V010 CAVOK 21/11 Q1018
8:00 下午
V
72 °F 6¼ mi+ - 320° 320° 9 kt METAR LFBC 281800Z AUTO 32009KT CAVOK 22/11 Q1018
7:30 下午
V
72 °F 6¼ mi+ - 320° 320° 7 kt METAR LFBC 281730Z AUTO 32007KT 280V010 CAVOK 22/11 Q1018
7:00 下午
V
73 °F 6¼ mi+ - 330° 330° 7 kt METAR LFBC 281700Z AUTO 33007KT 280V020 CAVOK 23/11 Q1018
6:30 下午
V
73 °F 6¼ mi+ - 330° 330° 8 kt METAR LFBC 281630Z AUTO 33008KT 290V010 CAVOK 23/11 Q1018
6:00 下午
V
73 °F 6¼ mi+ - 320° 320° 8 kt METAR LFBC 281600Z AUTO 32008KT 280V010 CAVOK 23/11 Q1018
5:30 下午
V
73 °F 6¼ mi+ - 320° 320° 9 kt METAR LFBC 281530Z AUTO 32009KT 270V360 CAVOK 23/11 Q1018
5:00 下午
V
73 °F 6¼ mi+ - 320° 320° 9 kt METAR LFBC 281500Z AUTO 32009KT 280V340 CAVOK 23/11 Q1018 NOSIG
4:30 下午
V
73 °F 6¼ mi+ - 310° 310° 9 kt METAR LFBC 281430Z AUTO 31009KT 270V350 CAVOK 23/11 Q1019 NOSIG
4:00 下午
V
73 °F 6¼ mi+ - 300° 300° 10 kt METAR LFBC 281400Z AUTO 30010KT 260V330 CAVOK 23/11 Q1019 NOSIG
3:30 下午
V
73 °F 6¼ mi+ - 300° 300° 9 kt METAR LFBC 281330Z AUTO 30009KT 260V340 CAVOK 23/12 Q1019 NOSIG
3:00 下午
V
73 °F 6¼ mi+ - 320° 320° 9 kt METAR LFBC 281300Z AUTO 32009KT 290V360 CAVOK 23/11 Q1019 NOSIG
2:30 下午
V
75 °F 6¼ mi+ - 240° 240° 7 kt METAR LFBC 281230Z AUTO 24007KT 180V290 CAVOK 24/12 Q1019 NOSIG
2:00 下午
V
73 °F 6¼ mi+ - 210° 210° 7 kt METAR LFBC 281200Z AUTO 21007KT 160V250 CAVOK 23/11 Q1020 NOSIG
1:30 下午
V
73 °F 6¼ mi+ - 220° 220° 7 kt METAR LFBC 281130Z AUTO 22007KT 180V260 CAVOK 23/11 Q1020 NOSIG
1:00 下午
V
72 °F 6¼ mi+ - Var Var 4 kt METAR LFBC 281100Z AUTO VRB04KT CAVOK 22/10 Q1020 NOSIG
12:30 下午
V
73 °F 6¼ mi+ - Var Var 4 kt METAR LFBC 281030Z AUTO VRB04KT CAVOK 23/10 Q1020 NOSIG
12:00 下午
V
72 °F 6¼ mi+ - 150° 150° 4 kt METAR LFBC 281000Z AUTO 15004KT 060V200 CAVOK 22/10 Q1020 NOSIG
11:30 上午
V
70 °F 6¼ mi+ - 110° 110° 4 kt METAR LFBC 280930Z AUTO 11004KT 060V220 9999 FEW037 21/10 Q1021 NOSIG
11:00 上午
V
68 °F 6¼ mi+ - 070° 070° 4 kt METAR LFBC 280900Z AUTO 07004KT 030V130 CAVOK 20/10 Q1021 NOSIG
10:30 上午
V
68 °F 6¼ mi+ - 060° 060° 4 kt METAR LFBC 280830Z AUTO 06004KT 010V140 CAVOK 20/10 Q1021 NOSIG
10:00 上午
V
66 °F 6¼ mi+ - 050° 050° 6 kt METAR LFBC 280800Z AUTO 05006KT 360V090 CAVOK 19/11 Q1021 NOSIG
9:30 上午
V
64 °F 6¼ mi+ - 050° 050° 5 kt METAR LFBC 280730Z AUTO 05005KT 010V110 CAVOK 18/12 Q1022 NOSIG
9:00 上午
V
63 °F 6¼ mi+ - 030° 030° 3 kt METAR LFBC 280700Z AUTO 03003KT 360V060 CAVOK 17/12 Q1022 NOSIG
8:30 上午
V
57 °F 6¼ mi+ - Var Var 2 kt METAR LFBC 280630Z AUTO VRB02KT CAVOK 14/12 Q1022 NOSIG
8:00 上午
V
55 °F 6¼ mi+ - 020° 020° 2 kt METAR LFBC 280600Z AUTO 02002KT CAVOK 13/11 Q1022 NOSIG
7:30 上午
V
55 °F 6¼ mi+ - Var Var 2 kt METAR LFBC 280530Z AUTO VRB02KT CAVOK 13/11 Q1022 NOSIG
7:00 上午
V
54 °F 6¼ mi+ - Var Var 1 kt METAR LFBC 280500Z AUTO VRB01KT CAVOK 12/11 Q1022
6:30 上午
V
52 °F 6¼ mi+ - 010° 010° 2 kt METAR LFBC 280430Z AUTO 01002KT CAVOK 11/10 Q1022
6:00 上午
V
50 °F 6¼ mi+ - Var 000° 0 kt METAR LFBC 280400Z AUTO 00000KT CAVOK 10/09 Q1022
5:30 上午
V
52 °F 6¼ mi+ - 080° 080° 1 kt METAR LFBC 280330Z AUTO 08001KT CAVOK 11/09 Q1022
5:00 上午
V
52 °F 6¼ mi+ - 030° 030° 1 kt METAR LFBC 280300Z AUTO 03001KT CAVOK 11/11 Q1022
4:30 上午
V
52 °F 6¼ mi+ - Var 000° 0 kt METAR LFBC 280230Z AUTO 00000KT CAVOK 11/10 Q1022
4:00 上午
V
52 °F 6¼ mi+ - Var 000° 0 kt METAR LFBC 280200Z AUTO 00000KT CAVOK 11/10 Q1022
3:30 上午
V
52 °F 6¼ mi+ - Var Var 1 kt METAR LFBC 280130Z AUTO VRB01KT CAVOK 11/10 Q1022
3:00 上午
V
50 °F 6¼ mi+ - Var 000° 0 kt METAR LFBC 280100Z AUTO 00000KT CAVOK 10/10 Q1023
2:30 上午
V
52 °F 6¼ mi+ - Var 000° 0 kt METAR LFBC 280030Z AUTO 00000KT CAVOK 11/09 Q1023
2:00 上午
V
52 °F 6¼ mi+ - 340° 340° 1 kt METAR LFBC 280000Z AUTO 34001KT CAVOK 11/10 Q1023
1:30 上午
V
54 °F 6¼ mi+ - Var 000° 0 kt METAR LFBC 272330Z AUTO 00000KT CAVOK 12/10 Q1023
1:00 上午
V
55 °F 6¼ mi+ - 350° 350° 1 kt METAR LFBC 272300Z AUTO 35001KT CAVOK 13/10 Q1024
12:30 上午
V
55 °F 6¼ mi+ - 340° 340° 2 kt METAR LFBC 272230Z AUTO 34002KT CAVOK 13/10 Q1024
12:00 上午
V
57 °F 6¼ mi+ - 010° 010° 1 kt METAR LFBC 272200Z AUTO 01001KT CAVOK 14/10 Q1024
较旧的数据

下载我们的应用程序

在您的手机和平板电脑上轻松访问所有航空天气。
有许多网站上没有的功能,如离线支持和个人机场列表。

Studio Eveline

Benalmádena
España

我们和第三方通过cookies跟踪您在我们网站上的上网行为。如果您继续,我们认为您同意我们的cookie政策。 了解更多